Time;durP1;ratioP1;P1;durP2;ratioP2;P2;SDS_P1;SDS_P2;PMS_P1;PMS_P2;Temp;Humidity;BMP_temperature;BMP_pressure;BME280_temperature;BME280_humidity;BME280_pressure;Samples;Min_cycle;Max_cycle;Signal;HPM_P1;HPM_P2
2023/10/10 00:01:02;;;;;;;;;36.00;25.33;;;;;20.07;54.79;101813.66;5040547;28;45449;-41
2023/10/10 00:03:31;;;;;;;;;31.33;24.67;;;;;20.04;55.44;101816.72;5059270;28;45968;-42
2023/10/10 00:05:58;;;;;;;;;26.67;21.00;;;;;19.88;55.87;101806.03;5058833;28;46991;-45
2023/10/10 00:08:33;;;;;;;;;22.00;20.67;;;;;19.84;56.24;101796.63;5058893;28;45300;-42
2023/10/10 00:10:59;;;;;;;;;26.00;23.67;;;;;19.87;55.77;101804.38;5058965;28;45393;-41
2023/10/10 00:13:24;;;;;;;;;26.67;22.00;;;;;19.89;56.13;101815.84;5059320;28;45467;-44
2023/10/10 00:15:51;;;;;;;;;27.67;24.67;;;;;19.88;56.47;101814.16;5058770;28;46556;-39
2023/10/10 00:18:19;;;;;;;;;32.67;22.00;;;;;19.86;55.90;101817.03;5058646;28;45735;-42
2023/10/10 00:21:06;;;;;;;;;25.33;21.33;;;;;19.80;56.27;101809.66;5058138;28;45409;-46
2023/10/10 00:23:42;;;;;;;;;24.67;21.00;;;;;19.78;56.17;101816.28;5059066;28;45361;-42
2023/10/10 00:26:21;;;;;;;;;26.00;22.00;;;;;19.75;56.48;101822.84;5058637;28;46194;-45
2023/10/10 00:28:53;;;;;;;;;27.67;24.00;;;;;19.64;56.91;101820.59;5058633;28;45437;-41
2023/10/10 00:31:20;;;;;;;;;24.50;18.50;;;;;19.60;57.09;101827.34;5058731;28;45659;-46
2023/10/10 00:33:47;;;;;;;;;29.67;19.33;;;;;19.65;56.79;101822.28;5058662;28;45472;-40
2023/10/10 00:36:12;;;;;;;;;24.67;22.67;;;;;19.61;56.91;101818.25;5040164;28;47164;-41
2023/10/10 00:38:38;;;;;;;;;28.00;23.00;;;;;19.66;56.79;101824.78;5058466;28;45383;-41
2023/10/10 00:41:11;;;;;;;;;26.67;22.00;;;;;19.63;56.93;101822.44;5058711;28;45463;-42
2023/10/10 00:43:36;;;;;;;;;29.00;20.33;;;;;19.59;57.11;101825.66;5058472;28;45445;-42
2023/10/10 00:46:04;;;;;;;;;26.67;22.33;;;;;19.51;56.82;101807.69;5058260;28;47296;-41
2023/10/10 00:48:32;;;;;;;;;29.33;21.00;;;;;19.55;57.21;101822.50;5057906;28;45353;-41
2023/10/10 00:51:08;;;;;;;;;27.00;23.00;;;;;19.45;56.57;101811.91;5058598;28;45240;-44
2023/10/10 00:53:34;;;;;;;;;25.33;22.00;;;;;19.49;56.99;101823.19;5058562;28;45371;-42
2023/10/10 00:56:00;;;;;;;;;24.33;23.00;;;;;19.46;57.33;101823.53;5058008;28;46460;-41
2023/10/10 00:58:38;;;;;;;;;31.67;27.00;;;;;19.42;57.87;101819.53;5058255;28;45499;-42
2023/10/10 01:01:14;;;;;;;;;30.00;21.00;;;;;19.42;57.09;101819.53;5058166;28;45981;-43
2023/10/10 01:03:50;;;;;;;;;60.33;47.67;;;;;19.37;57.74;101819.22;5058232;28;45506;-42
2023/10/10 01:06:25;;;;;;;;;46.00;33.67;;;;;19.30;57.58;101812.84;5057725;28;46579;-46
2023/10/10 01:08:55;;;;;;;;;30.00;24.67;;;;;19.25;57.83;101810.69;5057820;28;45426;-50
2023/10/10 01:11:22;;;;;;;;;27.00;25.33;;;;;19.22;57.78;101802.13;5058282;28;45408;-45
2023/10/10 01:13:48;;;;;;;;;26.33;23.67;;;;;19.19;58.22;101803.31;5058015;28;45383;-42
2023/10/10 01:16:15;;;;;;;;;25.67;23.33;;;;;19.18;58.56;101799.78;5057697;28;47180;-51
2023/10/10 01:18:51;;;;;;;;;27.00;22.33;;;;;19.16;58.15;101798.28;5039481;28;45666;-45
2023/10/10 01:21:30;;;;;;;;;28.00;21.67;;;;;19.13;58.28;101796.78;5057710;28;45324;-42
2023/10/10 01:24:00;;;;;;;;;23.00;19.67;;;;;19.03;58.93;101782.66;5058123;28;45364;-42
2023/10/10 01:26:29;;;;;;;;;21.00;19.67;;;;;19.10;58.81;101799.00;5057183;28;45662;-42
2023/10/10 01:28:54;;;;;;;;;24.00;20.33;;;;;19.10;58.58;101793.59;5057609;28;45324;-47
2023/10/10 01:31:19;;;;;;;;;26.33;20.33;;;;;19.08;58.60;101788.34;5057669;28;45632;-41
2023/10/10 01:33:47;;;;;;;;;25.00;22.00;;;;;19.08;59.12;101790.22;5057860;28;45356;-44
2023/10/10 01:36:18;;;;;;;;;23.33;21.00;;;;;19.05;59.09;101791.44;5057605;28;45484;-43
2023/10/10 01:38:56;;;;;;;;;19.00;19.00;;;;;19.02;59.00;101791.78;5057499;28;45332;-46
2023/10/10 01:41:39;;;;;;;;;31.33;21.00;;;;;18.99;58.69;101785.91;5057700;28;45432;-41
2023/10/10 01:44:18;;;;;;;;;22.67;21.33;;;;;18.95;58.96;101791.63;5057676;28;46112;-43
2023/10/10 01:46:44;;;;;;;;;23.67;19.00;;;;;18.91;59.11;101787.59;5057367;28;47043;-44
2023/10/10 01:49:13;;;;;;;;;20.00;19.67;;;;;18.80;59.19;101768.31;5057083;28;45506;-42
2023/10/10 01:51:42;;;;;;;;;26.33;22.67;;;;;18.88;59.20;101789.84;5057357;28;45397;-48
2023/10/10 01:54:15;;;;;;;;;23.00;20.00;;;;;18.85;59.59;101782.94;5056913;28;45805;-42
2023/10/10 01:56:42;;;;;;;;;25.33;22.33;;;;;18.82;59.41;101780.56;5056881;28;46122;-41
2023/10/10 01:59:13;;;;;;;;;21.67;21.67;;;;;18.74;59.76;101766.31;5057177;28;45434;-41
2023/10/10 02:01:39;;;;;;;;;28.33;23.00;;;;;18.78;60.18;101776.56;5056282;28;45413;-42
2023/10/10 02:04:07;;;;;;;;;27.67;23.67;;;;;18.78;59.99;101781.09;5057257;28;45423;-41
2023/10/10 02:06:35;;;;;;;;;21.33;20.00;;;;;18.75;59.84;101778.75;5056943;28;46429;-42
2023/10/10 02:09:11;;;;;;;;;24.00;22.67;;;;;18.76;60.32;101777.75;5056991;28;45271;-40
2023/10/10 02:11:49;;;;;;;;;21.67;21.33;;;;;18.75;60.41;101776.06;5050063;28;45548;-41
2023/10/10 02:14:15;;;;;;;;;25.00;21.33;;;;;18.72;60.64;101771.03;5057079;28;45569;-41
2023/10/10 02:16:41;;;;;;;;;26.33;23.33;;;;;18.73;60.67;101772.72;5056799;28;45593;-42
2023/10/10 02:19:15;;;;;;;;;27.67;23.00;;;;;18.62;60.60;101755.88;5056688;28;45559;-46
2023/10/10 02:21:47;;;;;;;;;20.33;16.67;;;;;18.65;60.67;101762.78;5056863;28;45336;-42
2023/10/10 02:27:06;;;;;;;;;20.67;20.67;;;;;18.70;60.35;101771.19;4994329;28;46331;-40
2023/10/10 02:32:08;;;;;;;;;25.33;22.33;;;;;18.54;60.60;101761.31;4994838;28;45387;-44
2023/10/10 02:34:43;;;;;;;;;25.00;21.33;;;;;18.55;60.62;101767.53;4994856;28;45335;-40
2023/10/10 02:39:47;;;;;;;;;23.67;20.33;;;;;18.49;61.18;101763.66;4994582;28;45386;-42
2023/10/10 02:42:19;;;;;;;;;20.00;17.33;;;;;18.47;61.47;101762.19;4994587;28;45361;-45
2023/10/10 02:44:52;;;;;;;;;18.67;17.33;;;;;18.43;61.74;101770.59;4994659;28;45581;-40
2023/10/10 02:47:30;;;;;;;;;24.00;19.33;;;;;18.40;61.84;101764.72;4994440;28;45367;-40
2023/10/10 02:50:00;;;;;;;;;23.00;19.00;;;;;18.40;61.66;101762.84;4994634;28;45469;-40
2023/10/10 02:52:28;;;;;;;;;26.33;23.00;;;;;18.39;61.48;101760.34;4994500;28;45425;-40
2023/10/10 02:54:54;;;;;;;;;23.00;20.00;;;;;18.40;61.81;101762.00;4994713;28;45512;-41
2023/10/10 02:59:58;;;;;;;;;27.00;21.00;;;;;18.41;61.32;101763.69;4994178;28;45357;-41
2023/10/10 03:02:28;;;;;;;;;26.67;20.00;;;;;18.41;61.53;101767.25;4975986;28;45478;-47
2023/10/10 03:07:29;;;;;;;;;25.33;23.00;;;;;18.38;61.48;101770.28;5036111;28;45436;-40
2023/10/10 03:12:37;;;;;;;;;20.67;20.00;;;;;18.31;60.88;101760.38;5036110;28;45444;-40
2023/10/10 03:15:13;;;;;;;;;23.33;20.00;;;;;18.25;61.45;101755.69;5036222;28;45333;-42
2023/10/10 03:17:48;;;;;;;;;26.00;21.67;;;;;18.23;62.15;101763.06;5036111;28;45514;-39
2023/10/10 03:20:48;;;;;;;;;25.33;19.33;;;;;18.22;61.99;101756.84;5035924;28;45349;-41
2023/10/10 03:25:51;;;;;;;;;24.33;19.00;;;;;18.11;61.97;101752.66;5036093;28;45293;-41
2023/10/10 03:28:21;;;;;;;;;12.00;11.00;;;;;18.05;62.42;101761.44;5035425;28;45347;-50
2023/10/10 03:31:11;;;;;;;;;24.00;20.00;;;;;18.03;62.21;101760.75;5035807;28;45303;-42
2023/10/10 03:33:43;;;;;;;;;30.00;20.00;;;;;18.01;62.23;101768.16;5035809;28;45925;-40
2023/10/10 05:25:14;;;;;;;;;20.33;14.67;;;;;17.10;63.23;101736.81;5037896;28;45368;-40
2023/10/10 05:27:42;;;;;;;;;16.50;15.00;;;;;17.08;63.06;101738.03;5037474;28;46118;-42
2023/10/10 05:30:23;;;;;;;;;18.67;16.33;;;;;17.04;63.84;101732.13;5037276;28;45424;-44
2023/10/10 05:33:03;;;;;;;;;20.67;16.33;;;;;16.99;63.57;101721.03;5037469;28;45307;-42
2023/10/10 05:35:31;;;;;;;;;22.00;18.00;;;;;17.00;64.00;101722.72;5036660;28;45387;-42
2023/10/10 05:37:56;;;;;;;;;22.00;15.67;;;;;16.93;63.98;101710.94;5037102;28;47342;-42
2023/10/10 05:40:24;;;;;;;;;22.00;16.00;;;;;16.94;63.95;101720.69;5037177;28;45280;-48
2023/10/10 05:42:51;;;;;;;;;18.67;16.33;;;;;16.90;63.85;101713.97;5037326;28;45374;-42
2023/10/10 05:45:18;;;;;;;;;16.33;15.33;;;;;16.92;64.06;101715.47;5036743;28;45530;-42
2023/10/10 05:47:44;;;;;;;;;17.67;16.33;;;;;16.94;63.85;101718.00;5036379;28;46435;-42
2023/10/10 05:50:10;;;;;;;;;20.33;17.00;;;;;16.95;63.54;101717.84;5036708;28;45421;-45
2023/10/10 05:52:43;;;;;;;;;20.67;18.33;;;;;16.94;63.63;101728.75;5031491;28;45380;-51
2023/10/10 05:55:10;;;;;;;;;23.67;18.00;;;;;16.93;63.71;101724.38;5015450;28;45578;-41
2023/10/10 05:57:36;;;;;;;;;19.00;16.33;;;;;16.83;63.90;101712.94;5016411;28;45458;-48
2023/10/10 06:00:05;;;;;;;;;17.67;16.67;;;;;16.90;64.00;101728.25;5019338;28;45883;-42
2023/10/10 06:02:31;;;;;;;;;17.00;15.00;;;;;16.88;63.48;101718.66;5031967;28;45632;-44
2023/10/10 06:04:57;;;;;;;;;26.67;19.67;;;;;16.88;64.20;101722.16;5033508;28;45318;-47
2023/10/10 06:07:23;;;;;;;;;21.00;17.33;;;;;16.88;63.80;101724.03;5035510;28;47193;-47
2023/10/10 06:09:51;;;;;;;;;20.67;16.67;;;;;16.81;63.82;101720.28;5035660;28;45499;-54
2023/10/10 06:12:18;;;;;;;;;19.67;17.33;;;;;16.84;63.67;101726.19;5035872;28;45348;-51
2023/10/10 06:14:46;;;;;;;;;22.67;19.67;;;;;16.86;63.34;101739.47;5035812;28;45384;-56
2023/10/10 06:17:12;;;;;;;;;22.00;19.00;;;;;16.84;63.57;101728.88;5034965;28;45451;-47
2023/10/10 06:19:37;;;;;;;;;25.33;20.33;;;;;16.84;63.60;101734.25;5035004;28;45365;-43
2023/10/10 06:22:08;;;;;;;;;22.00;17.67;;;;;16.83;63.49;101737.13;5035520;28;45376;-43
2023/10/10 06:24:38;;;;;;;;;18.33;17.67;;;;;16.82;63.68;101732.75;5035309;28;45438;-45
2023/10/10 06:27:03;;;;;;;;;19.33;17.00;;;;;16.84;63.85;101742.31;5035047;28;46316;-46
2023/10/10 06:29:29;;;;;;;;;18.33;15.67;;;;;16.86;63.90;101740.31;5035722;28;45387;-47
2023/10/10 06:31:56;;;;;;;;;21.33;15.00;;;;;16.85;63.45;101727.88;5035523;28;45662;-52
2023/10/10 06:34:23;;;;;;;;;21.33;17.33;;;;;16.93;63.63;101738.63;5035639;28;45480;-53
2023/10/10 06:36:50;;;;;;;;;23.33;19.33;;;;;16.99;63.73;101745.22;5034220;28;45538;-47
2023/10/10 06:41:46;;;;;;;;;25.00;19.33;;;;;17.11;62.86;101735.84;5034603;28;45723;-47
2023/10/10 06:44:15;;;;;;;;;28.33;22.33;;;;;17.14;62.70;101729.28;5033789;28;45288;-48
2023/10/10 06:46:41;;;;;;;;;25.00;19.00;;;;;17.24;62.56;101735.38;5034120;28;47239;-45
2023/10/10 06:49:07;;;;;;;;;21.00;18.33;;;;;17.28;62.30;101738.56;5035051;28;45428;-46
2023/10/10 06:51:39;;;;;;;;;31.00;22.33;;;;;17.38;62.07;101736.53;5034636;28;45468;-40
2023/10/10 06:54:19;;;;;;;;;17.00;14.33;;;;;17.43;61.84;101724.25;5034821;28;45315;-42
2023/10/10 06:57:04;;;;;;;;;21.00;17.33;;;;;17.51;61.10;101726.13;5018865;28;45420;-41
2023/10/10 06:59:31;;;;;;;;;22.33;18.00;;;;;17.66;61.33;101737.06;5034869;28;45324;-40
2023/10/10 07:02:13;;;;;;;;;18.67;16.67;;;;;17.74;61.20;101738.88;5034564;28;45458;-41
2023/10/10 07:04:38;;;;;;;;;17.00;15.00;;;;;17.79;60.61;101741.97;5034769;28;45541;-41
2023/10/10 07:07:06;;;;;;;;;28.00;20.67;;;;;17.83;60.44;101732.53;5034600;28;45993;-48
2023/10/10 07:09:31;;;;;;;;;20.67;20.00;;;;;17.88;60.42;101732.88;5034287;28;46301;-41
2023/10/10 07:12:09;;;;;;;;;23.33;18.00;;;;;17.85;60.28;101725.13;5034730;28;45343;-46
2023/10/10 07:14:43;;;;;;;;;18.00;17.00;;;;;17.87;60.42;101731.19;5018728;28;45450;-40
2023/10/10 07:17:12;;;;;;;;;21.00;19.33;;;;;17.84;60.30;101732.34;5034382;28;46782;-42
2023/10/10 07:22:35;;;;;;;;;27.50;20.00;;;;;18.05;60.34;101733.66;5034077;28;45388;-42
2023/10/10 07:25:07;;;;;;;;;18.00;17.67;;;;;18.10;60.01;101732.13;5034699;28;45625;-42
2023/10/10 07:27:35;;;;;;;;;23.00;18.00;;;;;18.09;60.18;101741.22;5034270;28;46150;-43
2023/10/10 07:30:33;;;;;;;;;18.67;18.00;;;;;18.14;60.14;101736.16;5033487;28;45864;-43
2023/10/10 07:32:50;;;;;;;;;22.67;19.00;;;;;18.27;59.45;101727.53;5031138;28;46329;-41
2023/10/10 07:35:16;;;;;;;;;21.00;17.00;;;;;18.39;59.40;101733.41;5016507;28;46027;-42
2023/10/10 07:37:45;;;;;;;;;24.67;20.33;;;;;18.50;58.96;101733.03;5033651;28;45447;-41
2023/10/10 07:40:22;;;;;;;;;19.00;17.00;;;;;18.61;58.47;101739.88;5034197;28;45415;-41
2023/10/10 07:42:57;;;;;;;;;29.00;17.33;;;;;18.64;58.26;101747.63;5033368;28;45554;-42
2023/10/10 07:45:43;;;;;;;;;23.00;18.67;;;;;18.72;57.90;101753.00;5034305;28;45298;-41
2023/10/10 07:50:35;;;;;;;;;24.00;21.67;;;;;18.84;57.91;101742.69;5034016;28;45435;-42
2023/10/10 07:53:06;;;;;;;;;21.67;19.67;;;;;18.96;57.55;101746.63;5033960;28;45757;-42
2023/10/10 07:55:34;;;;;;;;;25.00;21.00;;;;;19.01;57.35;101748.81;5034426;28;45488;-47
2023/10/10 07:58:00;;;;;;;;;36.33;30.00;;;;;18.98;57.47;101749.16;5032262;28;45384;-41
2023/10/10 08:00:35;;;;;;;;;27.00;23.33;;;;;19.08;57.27;101760.56;5037344;28;46444;-43
2023/10/10 08:03:02;;;;;;;;;21.33;19.67;;;;;19.20;56.91;101768.06;5037584;28;45518;-42
2023/10/10 08:05:29;;;;;;;;;21.33;19.00;;;;;19.31;56.30;101752.50;5035744;28;45479;-50
2023/10/10 08:07:57;;;;;;;;;23.00;21.00;;;;;19.43;56.08;101743.81;5019480;28;46234;-45
2023/10/10 08:10:29;;;;;;;;;18.33;18.33;;;;;19.56;56.02;101759.38;5037801;28;45494;-48
2023/10/10 08:13:00;;;;;;;;;26.33;23.33;;;;;19.68;56.03;101759.84;5037139;28;45481;-45
2023/10/10 08:15:26;;;;;;;;;24.00;20.00;;;;;19.71;55.29;101755.91;5036869;28;45253;-43
2023/10/10 08:17:54;;;;;;;;;24.33;21.33;;;;;19.72;55.55;101763.84;5037375;28;45474;-42
2023/10/10 08:20:34;;;;;;;;;22.33;21.33;;;;;19.77;55.29;101769.53;5035903;28;45384;-41
2023/10/10 08:23:04;;;;;;;;;19.33;14.67;;;;;19.84;55.31;101775.88;5037402;28;45420;-53
2023/10/10 08:25:30;;;;;;;;;22.33;18.67;;;;;19.88;54.97;101770.94;5037818;28;45691;-53
2023/10/10 08:27:58;;;;;;;;;30.00;20.33;;;;;19.84;55.16;101769.63;5037044;28;46124;-51
2023/10/10 08:30:25;;;;;;;;;24.00;21.00;;;;;19.79;55.43;101762.06;5019144;28;45483;-42
2023/10/10 08:32:55;;;;;;;;;21.33;21.00;;;;;19.93;54.99;101769.38;5037188;28;45380;-43
2023/10/10 08:35:23;;;;;;;;;29.67;22.00;;;;;20.04;55.01;101767.25;5037238;28;45464;-43
2023/10/10 08:37:50;;;;;;;;;25.00;22.00;;;;;19.96;54.41;101756.53;5036746;28;47244;-46
2023/10/10 08:40:19;;;;;;;;;26.00;20.33;;;;;19.93;54.54;101749.63;5037218;28;45376;-47
2023/10/10 08:42:47;;;;;;;;;34.67;23.33;;;;;19.97;53.89;101742.00;5036450;28;45794;-45
2023/10/10 08:45:22;;;;;;;;;21.00;18.00;;;;;20.07;54.02;101751.53;5037086;28;45521;-42
2023/10/10 08:47:58;;;;;;;;;25.00;20.00;;;;;20.15;54.04;101743.34;5037080;28;46738;-39
2023/10/10 08:50:24;;;;;;;;;29.00;20.67;;;;;20.29;53.81;101743.53;5036243;28;45529;-41
2023/10/10 08:52:50;;;;;;;;;22.33;18.00;;;;;20.35;53.90;101742.75;5036461;28;45311;-40
2023/10/10 08:55:18;;;;;;;;;31.67;22.67;;;;;20.65;53.46;101747.16;5037355;28;45439;-43
2023/10/10 08:57:43;;;;;;;;;26.33;19.33;;;;;20.99;52.56;101740.28;5036134;28;45475;-42
2023/10/10 09:00:11;;;;;;;;;28.67;21.67;;;;;21.37;52.00;101756.31;5035436;28;45995;-46
2023/10/10 09:02:37;;;;;;;;;28.33;20.00;;;;;21.81;51.20;101747.97;5036744;28;45385;-43
2023/10/10 09:05:07;;;;;;;;;25.25;20.50;;;;;22.30;50.17;101741.66;5036700;28;45466;-45
2023/10/10 09:07:34;;;;;;;;;25.50;21.00;;;;;22.67;49.17;101736.84;5036198;28;46499;-45
2023/10/10 09:10:13;;;;;;;;;20.75;16.00;;;;;22.62;48.76;101734.72;5018487;28;45377;-49
2023/10/10 09:12:56;;;;;;;;;20.00;18.75;;;;;22.42;49.33;101740.06;5036198;28;45569;-43
2023/10/10 09:15:23;;;;;;;;;17.75;16.75;;;;;22.28;49.57;101735.59;5036432;28;45340;-43
2023/10/10 09:17:49;;;;;;;;;28.25;20.75;;;;;21.89;50.11;101696.34;5036545;28;47066;-41
2023/10/10 09:20:28;;;;;;;;;23.25;21.25;;;;;22.01;50.88;101748.13;5036086;28;45431;-48
2023/10/10 09:22:58;;;;;;;;;25.75;18.75;;;;;22.00;50.66;101741.03;5036128;28;45567;-49
2023/10/10 09:25:31;;;;;;;;;20.75;18.50;;;;;21.95;50.83;101739.94;5036761;28;45791;-45
2023/10/10 09:28:08;;;;;;;;;24.25;18.75;;;;;21.95;50.83;101734.50;5035616;28;45726;-50
2023/10/10 09:31:12;;;;;;;;;26.75;24.25;;;;;21.90;50.82;101732.38;5035777;28;45434;-48
2023/10/10 09:33:30;;;;;;;;;27.50;20.00;;;;;21.89;50.99;101723.44;5032051;28;45573;-46
2023/10/10 09:36:09;;;;;;;;;23.25;20.00;;;;;22.03;51.08;101735.19;5036488;28;45472;-47
2023/10/10 09:38:45;;;;;;;;;21.50;21.50;;;;;22.08;50.91;101727.31;5035718;28;46241;-50
2023/10/10 09:41:27;;;;;;;;;29.50;21.50;;;;;22.24;50.71;101719.94;5035899;28;45656;-45
2023/10/10 09:54:46;;;;;;;;;22.50;20.50;;;;;23.97;47.70;101722.00;5035488;28;45383;-49
2023/10/10 09:57:13;;;;;;;;;30.25;21.50;;;;;24.17;47.32;101732.84;5018324;28;45518;-51
2023/10/10 09:59:42;;;;;;;;;23.25;20.00;;;;;24.94;46.00;101731.09;5035752;28;47038;-51
2023/10/10 10:02:07;;;;;;;;;25.50;21.00;;;;;25.23;44.56;101726.97;5035424;28;45484;-41
2023/10/10 10:04:41;;;;;;;;;3.50;1.75;;;;;25.29;44.22;101715.22;5035662;28;45384;-49
2023/10/10 10:07:41;;;;;;;;;20.50;18.50;;;;;26.26;43.36;101723.78;5036036;28;45596;-51
2023/10/10 10:10:33;;;;;;;;;24.75;22.50;;;;;28.11;40.96;101719.38;5035399;28;45625;-49
2023/10/10 10:13:22;;;;;;;;;32.00;27.00;;;;;29.08;38.89;101716.72;5035295;28;45462;-51
2023/10/10 10:15:53;;;;;;;;;27.20;21.00;;;;;29.84;36.35;101713.59;4954216;28;45472;-52
2023/10/10 10:18:44;;;;;;;;;22.00;21.50;;;;;30.14;36.23;101704.13;4954815;28;45558;-52
2023/10/10 10:21:19;;;;;;;;;25.20;22.60;;;;;30.55;35.54;101714.56;4953968;28;46347;-52
2023/10/10 10:23:47;;;;;;;;;23.20;19.40;;;;;30.97;35.45;101715.84;4954604;28;45506;-46
2023/10/10 10:26:32;;;;;;;;;25.60;18.20;;;;;30.99;34.51;101705.44;4960204;28;45485;-44
2023/10/10 10:29:00;;;;;;;;;25.40;21.60;;;;;31.13;33.99;101698.41;4957476;28;45487;-41
2023/10/10 10:31:32;;;;;;;;;20.00;18.60;;;;;30.98;35.64;101704.59;4954266;28;47288;-40
2023/10/10 10:34:05;;;;;;;;;30.00;18.00;;;;;31.11;35.46;101708.03;4954226;28;45612;-51
2023/10/10 10:36:44;;;;;;;;;25.60;18.00;;;;;31.59;34.42;101706.25;4954086;28;45872;-41
2023/10/10 10:39:35;;;;;;;;;15.00;13.80;;;;;32.20;34.01;101706.63;4954419;28;45397;-40
2023/10/10 10:42:12;;;;;;;;;27.80;23.20;;;;;32.58;32.90;101699.94;4953993;28;45874;-43
2023/10/10 10:44:46;;;;;;;;;20.60;18.40;;;;;33.01;33.15;101693.13;4953759;28;45368;-40
2023/10/10 10:47:35;;;;;;;;;23.60;19.80;;;;;33.71;31.90;101687.91;4953941;28;45906;-40
2023/10/10 10:50:27;;;;;;;;;25.20;17.60;;;;;34.39;30.07;101684.63;4950996;28;45489;-53
2023/10/10 10:52:57;;;;;;;;;21.00;19.40;;;;;36.28;27.24;101688.53;4994520;28;45751;-49
2023/10/10 10:55:27;;;;;;;;;16.40;16.40;;;;;38.39;25.67;101684.66;5034936;28;45356;-51
2023/10/10 10:58:07;;;;;;;;;17.40;15.20;;;;;40.09;24.94;101686.44;5034332;28;45462;-54
2023/10/10 11:03:34;;;;;;;;;17.40;15.00;;;;;41.72;21.32;101669.13;5034363;28;46203;-49
2023/10/10 11:06:06;;;;;;;;;22.40;15.60;;;;;42.38;21.22;101681.75;5034904;28;45610;-48
2023/10/10 11:14:03;;;;;;;;;17.60;17.00;;;;;42.96;20.28;101663.97;4953533;28;45493;-46
2023/10/10 11:16:39;;;;;;;;;16.00;13.60;;;;;43.09;19.30;101659.25;4953678;28;45511;-54
2023/10/10 11:21:50;;;;;;;;;17.40;15.40;;;;;43.59;18.97;101659.00;4953625;28;45845;-51
2023/10/10 11:24:26;;;;;;;;;16.60;13.60;;;;;43.15;19.62;101657.88;4953472;28;45841;-45
2023/10/10 11:29:44;;;;;;;;;11.80;10.00;;;;;42.60;19.86;101654.28;4953496;28;45352;-42
2023/10/10 11:32:12;;;;;;;;;12.20;10.20;;;;;43.06;19.49;101643.97;4953722;28;45537;-44
2023/10/10 11:34:44;;;;;;;;;10.00;10.00;;;;;43.63;19.18;101645.13;4955472;28;45707;-50
2023/10/10 11:37:30;;;;;;;;;12.60;11.40;;;;;43.80;18.43;101627.25;4956916;28;45362;-48
2023/10/10 11:42:57;;;;;;;;;10.60;8.80;;;;;40.90;20.49;101621.72;4971039;28;45433;-48
2023/10/10 11:45:27;;;;;;;;;12.40;9.00;;;;;40.15;20.58;101620.25;4955812;28;46548;-49
2023/10/10 11:48:05;;;;;;;;;8.00;7.20;;;;;39.53;21.10;101617.56;4997905;28;45490;-45
2023/10/10 11:51:03;;;;;;;;;9.00;7.00;;;;;38.16;22.93;101609.53;5036197;28;45293;-49
2023/10/10 11:53:29;;;;;;;;;7.00;7.00;;;;;37.33;24.37;101619.00;4962095;28;45394;-47
2023/10/10 11:55:56;;;;;;;;;8.20;8.00;;;;;36.78;23.57;101613.28;4958412;28;46221;-42
2023/10/10 11:58:35;;;;;;;;;9.00;6.20;;;;;36.82;23.36;101612.38;4956796;28;45387;-40
2023/10/10 12:01:05;;;;;;;;;9.60;8.80;;;;;36.82;23.74;101594.91;4958185;28;45455;-43
2023/10/10 12:06:14;;;;;;;;;12.60;6.80;;;;;36.99;23.30;101597.16;4956428;28;45441;-45
2023/10/10 12:08:50;;;;;;;;;8.40;7.60;;;;;37.05;23.86;101596.75;4974451;28;45642;-42
2023/10/10 12:11:19;;;;;;;;;8.80;8.60;;;;;36.84;22.27;101578.81;4963016;28;46488;-41
2023/10/10 12:13:50;;;;;;;;;12.00;9.00;;;;;36.58;23.17;101583.97;4975504;28;45514;-41
2023/10/10 12:16:17;;;;;;;;;7.60;7.00;;;;;36.30;22.34;101585.75;4959499;28;46143;-48
2023/10/10 12:18:44;;;;;;;;;7.00;7.00;;;;;35.98;24.70;101581.75;4955907;28;45471;-41
2023/10/10 12:21:14;;;;;;;;;8.60;7.00;;;;;35.61;23.60;101576.94;4956366;28;45506;-44
2023/10/10 12:23:39;;;;;;;;;10.60;10.60;;;;;35.30;24.10;101560.66;4956495;28;45506;-42
2023/10/10 12:26:04;;;;;;;;;11.00;9.00;;;;;35.15;23.82;101569.13;4955839;28;45440;-42
2023/10/10 12:28:30;;;;;;;;;10.00;7.50;;;;;34.81;24.40;101569.97;4973065;28;45552;-45
2023/10/10 12:30:56;;;;;;;;;7.75;5.75;;;;;34.52;24.14;101561.66;5037033;28;45483;-41
2023/10/10 12:33:23;;;;;;;;;9.00;5.80;;;;;34.25;24.36;101562.88;5036929;28;45473;-43
2023/10/10 12:35:49;;;;;;;;;8.40;8.40;;;;;33.94;24.88;101559.44;5037072;28;46294;-41
2023/10/10 12:38:21;;;;;;;;;10.00;8.00;;;;;33.62;26.21;101567.31;5036335;28;45579;-42
2023/10/10 12:40:50;;;;;;;;;11.20;8.00;;;;;33.21;26.42;101570.19;5036725;28;45383;-45
2023/10/10 12:43:16;;;;;;;;;8.00;7.60;;;;;32.65;26.64;101556.41;5036655;28;45526;-45
2023/10/10 12:45:42;;;;;;;;;8.60;8.60;;;;;32.20;26.90;101550.53;5035500;28;46244;-44
2023/10/10 12:48:13;;;;;;;;;13.00;9.25;;;;;31.75;27.14;101538.25;5036661;28;45407;-41
2023/10/10 12:50:44;;;;;;;;;7.20;7.20;;;;;31.41;28.10;101551.59;5036653;28;45344;-42
2023/10/10 12:53:14;;;;;;;;;7.60;6.00;;;;;31.10;28.35;101535.94;5036994;28;45340;-42
2023/10/10 12:55:49;;;;;;;;;9.20;7.80;;;;;30.77;29.00;101538.75;5036396;28;47641;-42
2023/10/10 12:58:23;;;;;;;;;11.40;8.20;;;;;30.47;29.00;101536.56;5036920;28;45490;-49
2023/10/10 13:00:50;;;;;;;;;10.80;8.20;;;;;30.21;29.33;101526.41;5018032;28;45480;-42
2023/10/10 13:03:23;;;;;;;;;11.40;8.40;;;;;30.02;29.45;101534.97;5036794;28;45592;-43
2023/10/10 13:05:54;;;;;;;;;10.20;8.80;;;;;29.81;29.18;101533.06;5034254;28;47040;-40
2023/10/10 13:08:22;;;;;;;;;9.60;7.00;;;;;29.64;29.20;101527.66;5035931;28;45427;-49
2023/10/10 13:10:54;;;;;;;;;12.00;8.60;;;;;29.51;30.05;101542.53;5036069;28;45483;-41
2023/10/10 13:13:26;;;;;;;;;9.80;7.20;;;;;29.32;29.66;101533.75;5037043;28;45432;-43
2023/10/10 13:16:07;;;;;;;;;16.80;12.40;;;;;29.12;29.84;101524.41;5035783;28;46969;-42
2023/10/10 13:18:35;;;;;;;;;10.40;7.00;;;;;29.00;29.46;101525.38;5035817;28;45442;-44
2023/10/10 13:21:00;;;;;;;;;8.00;8.00;;;;;28.93;29.50;101521.94;5036246;28;45465;-42
2023/10/10 13:23:26;;;;;;;;;7.25;7.00;;;;;28.80;29.96;101516.78;5036449;28;45418;-42
2023/10/10 13:25:51;;;;;;;;;10.50;7.75;;;;;28.75;30.09;101524.94;5035896;28;45879;-43
2023/10/10 13:28:17;;;;;;;;;6.00;6.00;;;;;28.62;30.18;101519.78;5036054;28;45399;-45
2023/10/10 13:30:46;;;;;;;;;11.00;8.00;;;;;28.56;30.10;101522.41;5035813;28;45364;-46
2023/10/10 13:33:12;;;;;;;;;11.40;8.80;;;;;28.49;30.05;101520.94;5036237;28;45557;-43
2023/10/10 13:35:38;;;;;;;;;10.40;8.40;;;;;28.43;30.67;101522.75;5035914;28;46683;-40
2023/10/10 13:38:05;;;;;;;;;9.75;7.50;;;;;28.38;30.45;101519.94;5018024;28;45474;-47
2023/10/10 13:40:37;;;;;;;;;8.20;8.00;;;;;28.31;30.55;101511.00;5035999;28;45494;-42
2023/10/10 13:43:08;;;;;;;;;9.60;7.20;;;;;28.22;30.48;101504.28;5035829;28;45573;-41
2023/10/10 13:45:41;;;;;;;;;13.20;9.00;;;;;28.21;30.90;101516.31;5035396;28;45470;-48
2023/10/10 13:48:13;;;;;;;;;11.40;8.60;;;;;28.08;30.41;101495.53;5035842;28;45509;-50
2023/10/10 13:50:41;;;;;;;;;5.60;5.60;;;;;28.06;30.11;101511.34;5035747;28;45598;-42
2023/10/10 13:53:10;;;;;;;;;8.20;7.20;;;;;28.03;30.28;101507.22;5036064;28;46000;-41
2023/10/10 13:55:38;;;;;;;;;11.20;7.20;;;;;27.94;30.44;101500.50;5034536;28;45533;-49
2023/10/10 13:58:07;;;;;;;;;9.20;8.40;;;;;27.85;30.30;101494.59;5033815;28;45495;-49
2023/10/10 14:00:35;;;;;;;;;12.60;8.20;;;;;27.85;30.07;101493.72;5035450;28;45427;-43
2023/10/10 14:03:03;;;;;;;;;6.40;6.20;;;;;27.90;30.24;101518.47;5035779;28;45364;-45
2023/10/10 14:05:30;;;;;;;;;7.40;6.60;;;;;27.84;30.03;101505.75;5035471;28;47678;-48
2023/10/10 14:07:56;;;;;;;;;6.00;6.00;;;;;27.82;30.43;101502.44;5035172;28;45451;-49
2023/10/10 14:10:21;;;;;;;;;7.25;7.25;;;;;27.83;30.75;101515.03;5035654;28;45191;-47
2023/10/10 14:12:46;;;;;;;;;7.00;5.75;;;;;27.77;30.65;101511.38;5035108;28;45469;-43
2023/10/10 14:15:12;;;;;;;;;8.50;8.00;;;;;27.77;30.64;101510.50;5035242;28;46094;-42